Time;durP1;ratioP1;P1;durP2;ratioP2;P2;SDS_P1;SDS_P2;PMS_P1;PMS_P2;Temp;Humidity;BMP_temperature;BMP_pressure;BME280_temperature;BME280_humidity;BME280_pressure;Samples;Min_cycle;Max_cycle;Signal;HPM_P1;HPM_P2
2022/06/21 00:02:18;;;;;;;12.43;1.70;;;13.00;99.90;;;;;;5025885;28;20049;-62
2022/06/21 00:04:46;;;;;;;9.98;1.77;;;13.00;99.90;;;;;;5029809;28;20033;-64
2022/06/21 00:07:22;;;;;;;5.63;1.50;;;12.90;99.90;;;;;;5027596;28;20120;-59
2022/06/21 00:09:48;;;;;;;3.67;1.10;;;12.90;99.90;;;;;;5024395;28;20116;-60
2022/06/21 00:12:14;;;;;;;8.70;2.05;;;12.90;99.90;;;;;;5012325;28;20447;-65
2022/06/21 00:14:41;;;;;;;6.35;1.48;;;12.80;99.90;;;;;;5028433;28;20125;-66
2022/06/21 00:17:14;;;;;;;10.98;1.88;;;12.80;99.90;;;;;;5029323;28;20118;-64
2022/06/21 00:19:43;;;;;;;7.05;1.95;;;12.80;99.90;;;;;;5019718;28;20118;-60
2022/06/21 00:22:17;;;;;;;9.70;2.30;;;12.80;99.90;;;;;;5029195;28;20112;-64
2022/06/21 00:24:44;;;;;;;12.15;2.78;;;12.90;99.90;;;;;;5028402;28;20064;-61
2022/06/21 00:27:17;;;;;;;8.32;1.90;;;13.00;99.90;;;;;;5028920;28;20056;-64
2022/06/21 00:29:43;;;;;;;8.70;2.63;;;13.00;99.90;;;;;;5022848;28;20080;-64
2022/06/21 00:32:15;;;;;;;11.40;3.67;;;13.00;99.90;;;;;;5027561;28;20487;-59
2022/06/21 00:34:41;;;;;;;12.10;2.97;;;13.00;99.90;;;;;;5012651;28;20501;-64
2022/06/21 00:37:25;;;;;;;18.85;3.50;;;13.10;99.90;;;;;;5027600;28;20102;-63
2022/06/21 00:39:51;;;;;;;15.13;4.43;;;13.00;99.90;;;;;;5024658;28;20084;-61
2022/06/21 00:42:29;;;;;;;13.60;4.15;;;13.00;99.90;;;;;;5011447;28;20080;-59
2022/06/21 00:45:11;;;;;;;11.40;3.15;;;13.00;99.90;;;;;;5027798;28;20132;-64
2022/06/21 00:47:50;;;;;;;16.17;6.93;;;13.00;99.90;;;;;;5029384;28;20045;-63
2022/06/21 00:50:26;;;;;;;12.95;2.58;;;12.90;99.90;;;;;;5042896;28;20075;-61
2022/06/21 00:53:13;;;;;;;19.52;7.18;;;12.90;99.90;;;;;;5028848;28;20057;-63
2022/06/21 00:55:52;;;;;;;19.08;6.32;;;12.80;99.90;;;;;;5012646;28;20488;-59
2022/06/21 00:58:21;;;;;;;16.35;6.60;;;12.80;99.90;;;;;;5026879;28;20052;-67
2022/06/21 01:00:55;;;;;;;12.60;4.82;;;12.80;99.90;;;;;;5024616;28;20049;-63
2022/06/21 01:03:38;;;;;;;17.95;5.47;;;12.70;99.90;;;;;;5020417;28;20099;-62
2022/06/21 01:06:09;;;;;;;18.65;5.97;;;12.70;99.90;;;;;;5015031;28;20045;-67
2022/06/21 01:08:40;;;;;;;13.90;5.13;;;12.60;99.90;;;;;;5028968;28;20288;-58
2022/06/21 01:11:11;;;;;;;15.57;5.07;;;12.60;99.90;;;;;;5025134;28;20487;-63
2022/06/21 01:13:45;;;;;;;13.00;4.70;;;12.50;99.90;;;;;;5028549;28;20048;-66
2022/06/21 01:16:12;;;;;;;15.75;6.45;;;12.40;99.90;;;;;;5026580;28;20537;-64
2022/06/21 01:18:38;;;;;;;18.70;7.10;;;12.30;99.90;;;;;;5046997;28;20080;-67
2022/06/21 01:21:05;;;;;;;17.20;6.68;;;12.20;99.90;;;;;;5029593;28;20053;-61
2022/06/21 01:23:42;;;;;;;23.30;6.43;;;12.20;99.90;;;;;;5030086;28;20037;-61
2022/06/21 01:26:39;;;;;;;22.55;6.40;;;12.10;99.90;;;;;;5033673;28;20076;-66
2022/06/21 01:29:27;;;;;;;12.15;6.40;;;12.00;99.90;;;;;;5016735;28;20045;-62
2022/06/21 01:31:55;;;;;;;13.73;6.00;;;12.00;99.90;;;;;;5049183;28;20047;-66
2022/06/21 01:34:23;;;;;;;17.65;5.68;;;12.00;99.90;;;;;;5044693;28;20496;-67
2022/06/21 01:36:56;;;;;;;19.30;6.57;;;12.00;99.90;;;;;;5014539;28;20045;-60
2022/06/21 01:39:28;;;;;;;21.08;8.07;;;11.90;99.90;;;;;;5031666;28;20057;-61
2022/06/21 01:42:01;;;;;;;18.98;9.18;;;11.90;99.90;;;;;;5020822;28;20095;-65
2022/06/21 01:44:30;;;;;;;16.88;8.15;;;11.90;99.90;;;;;;5032169;28;20075;-65
2022/06/21 01:47:00;;;;;;;12.85;6.22;;;11.90;99.90;;;;;;5030531;28;20040;-60
2022/06/21 01:49:29;;;;;;;21.45;6.00;;;11.90;99.90;;;;;;5031163;28;20053;-69
2022/06/21 01:52:10;;;;;;;11.50;4.70;;;12.00;99.90;;;;;;5029228;28;20455;-60
2022/06/21 01:54:42;;;;;;;16.33;4.00;;;11.90;99.90;;;;;;5030234;28;20055;-60
2022/06/21 01:57:11;;;;;;;13.23;5.82;;;11.90;99.90;;;;;;5031484;28;20132;-63
2022/06/21 01:59:41;;;;;;;13.73;4.80;;;11.90;99.90;;;;;;5029887;28;20045;-64
2022/06/21 02:02:13;;;;;;;7.90;4.18;;;11.80;99.90;;;;;;5024422;28;20566;-63
2022/06/21 02:04:49;;;;;;;12.35;3.90;;;11.80;99.90;;;;;;5012426;28;20043;-59
2022/06/21 02:07:27;;;;;;;12.68;3.92;;;11.70;99.90;;;;;;5027218;28;20045;-65
2022/06/21 02:10:28;;;;;;;12.52;3.67;;;11.70;99.90;;;;;;5029084;28;20045;-59
2022/06/21 02:13:08;;;;;;;15.27;3.88;;;11.60;99.90;;;;;;4969423;28;20046;-62
2022/06/21 02:15:48;;;;;;;11.15;3.90;;;11.60;99.90;;;;;;5022787;28;20554;-68
2022/06/21 02:18:16;;;;;;;6.00;3.47;;;11.60;99.90;;;;;;5003139;28;20061;-67
2022/06/21 02:20:50;;;;;;;10.68;4.32;;;11.50;99.90;;;;;;5029963;28;20119;-66
2022/06/21 02:23:18;;;;;;;14.52;4.13;;;11.50;99.90;;;;;;5020221;28;20080;-62
2022/06/21 02:25:44;;;;;;;18.98;3.95;;;11.40;99.90;;;;;;5013682;28;20056;-59
2022/06/21 02:28:16;;;;;;;11.65;4.20;;;11.40;99.90;;;;;;5031484;28;20671;-66
2022/06/21 02:30:43;;;;;;;8.95;4.15;;;11.40;99.90;;;;;;5031260;28;20075;-63
2022/06/21 02:33:16;;;;;;;11.88;5.10;;;11.40;99.90;;;;;;5028320;28;20487;-59
2022/06/21 02:35:48;;;;;;;13.82;4.68;;;11.40;99.90;;;;;;5031538;28;20049;-69
2022/06/21 02:38:18;;;;;;;9.77;4.47;;;11.40;99.90;;;;;;5012328;28;20049;-69
2022/06/21 02:40:53;;;;;;;13.95;4.13;;;11.40;99.90;;;;;;5031807;28;20064;-62
2022/06/21 02:43:37;;;;;;;9.75;3.13;;;11.40;99.90;;;;;;5028329;28;20076;-60
2022/06/21 02:46:08;;;;;;;12.25;3.20;;;11.40;99.90;;;;;;5013683;28;20118;-67
2022/06/21 02:48:44;;;;;;;7.53;3.10;;;11.40;99.90;;;;;;5031313;28;20045;-64
2022/06/21 02:51:19;;;;;;;8.38;3.03;;;11.30;99.90;;;;;;5029025;28;20053;-66
2022/06/21 02:54:10;;;;;;;9.93;3.28;;;11.30;99.90;;;;;;5029807;28;20092;-60
2022/06/21 02:56:45;;;;;;;10.20;2.97;;;11.20;99.90;;;;;;5030239;28;20107;-60
2022/06/21 02:59:13;;;;;;;13.02;4.32;;;11.20;99.90;;;;;;5029573;28;20116;-59
2022/06/21 03:01:44;;;;;;;15.77;4.50;;;11.10;99.90;;;;;;5024670;28;20057;-60
2022/06/21 03:04:19;;;;;;;8.30;3.58;;;11.10;99.90;;;;;;5012826;28;20517;-69
2022/06/21 03:06:46;;;;;;;6.88;2.33;;;11.10;99.90;;;;;;5030711;28;20052;-63
2022/06/21 03:09:16;;;;;;;6.43;2.28;;;11.00;99.90;;;;;;5029899;28;20390;-64
2022/06/21 03:11:47;;;;;;;4.20;1.83;;;10.80;99.90;;;;;;5008986;28;20042;-66
2022/06/21 03:14:16;;;;;;;7.97;1.70;;;10.70;99.90;;;;;;5027149;28;20129;-59
2022/06/21 03:16:44;;;;;;;6.32;1.83;;;10.60;99.90;;;;;;5029043;28;20491;-62
2022/06/21 03:19:25;;;;;;;7.30;2.17;;;10.50;99.90;;;;;;5014311;28;20068;-62
2022/06/21 03:21:51;;;;;;;8.18;2.00;;;10.60;99.90;;;;;;5026625;28;20045;-64
2022/06/21 03:24:24;;;;;;;8.80;2.17;;;10.60;99.90;;;;;;5025720;28;20098;-60
2022/06/21 03:27:15;;;;;;;14.70;2.20;;;10.60;99.90;;;;;;5013564;28;20514;-69
2022/06/21 03:29:41;;;;;;;7.72;2.03;;;10.60;99.90;;;;;;4994128;28;20057;-66
2022/06/21 03:32:08;;;;;;;10.90;2.40;;;10.70;99.90;;;;;;5013073;28;20075;-71
2022/06/21 03:34:35;;;;;;;6.55;1.60;;;10.70;99.90;;;;;;5027344;28;20056;-65
2022/06/21 03:37:01;;;;;;;8.48;1.77;;;10.70;99.90;;;;;;5014224;28;20060;-64
2022/06/21 03:42:18;;;;;;;8.10;2.10;;;10.70;99.90;;;;;;5028738;28;20131;-66
2022/06/21 03:45:06;;;;;;;8.00;1.90;;;10.80;99.90;;;;;;5028946;28;20128;-66
2022/06/21 03:47:45;;;;;;;5.40;1.90;;;10.80;99.90;;;;;;5028564;28;20053;-64
2022/06/21 03:50:23;;;;;;;7.57;2.17;;;10.90;99.90;;;;;;5013216;28;20061;-60
2022/06/21 03:52:54;;;;;;;7.85;2.25;;;10.90;99.90;;;;;;5012999;28;20053;-60
2022/06/21 03:55:41;;;;;;;6.50;1.73;;;11.00;99.90;;;;;;5009999;28;20068;-66
2022/06/21 03:58:35;;;;;;;4.82;1.83;;;11.00;99.90;;;;;;5029893;28;20568;-60
2022/06/21 04:01:11;;;;;;;9.45;2.40;;;11.10;99.90;;;;;;5029485;28;20045;-60
2022/06/21 04:03:53;;;;;;;7.88;2.20;;;11.10;99.90;;;;;;5029387;28;20041;-58
2022/06/21 04:06:25;;;;;;;9.60;1.90;;;11.20;99.90;;;;;;5022181;28;20057;-60
2022/06/21 04:09:08;;;;;;;7.10;2.05;;;11.30;99.90;;;;;;5027931;28;20037;-59
2022/06/21 04:11:45;;;;;;;4.68;2.20;;;11.40;99.90;;;;;;5047653;28;20056;-61
2022/06/21 04:14:39;;;;;;;9.00;2.22;;;11.40;99.90;;;;;;5027969;28;20544;-59
2022/06/21 04:17:07;;;;;;;5.90;2.38;;;11.40;99.90;;;;;;5028171;28;20060;-66
2022/06/21 04:19:47;;;;;;;10.93;2.40;;;11.50;99.90;;;;;;5029156;28;20156;-64
2022/06/21 04:22:38;;;;;;;11.27;2.43;;;11.50;99.90;;;;;;5027859;28;20040;-62
2022/06/21 04:25:14;;;;;;;10.85;2.58;;;11.60;99.90;;;;;;5016333;28;20486;-61
2022/06/21 04:27:55;;;;;;;10.30;2.10;;;11.60;99.90;;;;;;5029702;28;20131;-64
2022/06/21 04:30:32;;;;;;;5.28;2.20;;;11.60;99.90;;;;;;5027607;28;20076;-63
2022/06/21 04:33:13;;;;;;;6.07;1.58;;;11.60;99.90;;;;;;5028742;28;20091;-66
2022/06/21 04:35:44;;;;;;;7.28;2.25;;;11.60;99.90;;;;;;5026440;28;20462;-59
2022/06/21 04:38:32;;;;;;;10.35;2.13;;;11.70;99.90;;;;;;5028494;28;20090;-63
2022/06/21 04:41:11;;;;;;;3.65;2.00;;;11.60;99.90;;;;;;5029270;28;20052;-71
2022/06/21 04:43:46;;;;;;;10.90;2.42;;;11.60;99.90;;;;;;4998112;28;20052;-60
2022/06/21 04:46:34;;;;;;;8.40;2.03;;;11.60;99.90;;;;;;5011283;28;20056;-70
2022/06/21 04:49:10;;;;;;;6.65;2.10;;;11.60;99.90;;;;;;5001295;28;20037;-59
2022/06/21 04:51:45;;;;;;;9.07;3.50;;;11.60;99.90;;;;;;5027135;28;20513;-65
2022/06/21 04:54:22;;;;;;;10.98;2.10;;;11.70;99.90;;;;;;5029001;28;20060;-66
2022/06/21 04:57:06;;;;;;;9.38;2.45;;;11.80;99.90;;;;;;5025247;28;20048;-66
2022/06/21 04:59:36;;;;;;;10.45;2.70;;;11.90;99.90;;;;;;5036756;28;20049;-68
2022/06/21 05:02:04;;;;;;;8.60;2.90;;;12.00;99.90;;;;;;5028468;28;20483;-60
2022/06/21 05:04:40;;;;;;;6.75;2.30;;;12.10;99.90;;;;;;5027254;28;20088;-65
2022/06/21 05:07:13;;;;;;;7.00;1.92;;;12.30;99.90;;;;;;5027395;28;20479;-65
2022/06/21 05:09:41;;;;;;;6.75;2.30;;;12.40;99.90;;;;;;5002124;28;20548;-60
2022/06/21 05:12:14;;;;;;;6.47;2.30;;;12.40;99.90;;;;;;5028725;28;20483;-61
2022/06/21 05:14:46;;;;;;;8.10;2.05;;;12.50;99.90;;;;;;5027867;28;20037;-59
2022/06/21 05:17:15;;;;;;;7.78;2.58;;;12.60;99.90;;;;;;5028044;28;20053;-64
2022/06/21 05:19:48;;;;;;;6.00;2.03;;;12.70;99.90;;;;;;5027374;28;20059;-66
2022/06/21 05:22:24;;;;;;;6.35;2.28;;;12.80;99.90;;;;;;5026931;28;20205;-67
2022/06/21 05:24:50;;;;;;;5.07;2.10;;;12.90;99.90;;;;;;5014981;28;20055;-68
2022/06/21 05:27:22;;;;;;;9.02;2.90;;;13.00;99.90;;;;;;5010556;28;20037;-70
2022/06/21 05:30:06;;;;;;;9.93;3.22;;;13.10;99.90;;;;;;5017749;28;20056;-62
2022/06/21 05:32:38;;;;;;;10.93;3.97;;;13.20;99.90;;;;;;5028217;28;20479;-59
2022/06/21 05:35:14;;;;;;;10.65;4.55;;;13.30;99.90;;;;;;5002738;28;20049;-65
2022/06/21 05:37:49;;;;;;;10.93;4.18;;;13.50;99.90;;;;;;5028419;28;20051;-59
2022/06/21 05:40:25;;;;;;;7.18;3.55;;;13.70;99.90;;;;;;5031206;28;20061;-64
2022/06/21 05:42:51;;;;;;;12.77;3.92;;;13.80;99.90;;;;;;5028433;28;20350;-60
2022/06/21 05:45:20;;;;;;;11.85;4.03;;;14.10;99.90;;;;;;5018413;28;20071;-60
2022/06/21 05:47:52;;;;;;;11.07;3.90;;;14.30;99.90;;;;;;5027948;28;20055;-69
2022/06/21 05:50:24;;;;;;;8.65;3.03;;;14.50;99.90;;;;;;5027633;28;20065;-66
2022/06/21 05:52:54;;;;;;;6.22;2.13;;;14.50;99.90;;;;;;5026566;28;20059;-63
2022/06/21 05:55:32;;;;;;;5.20;2.33;;;14.60;99.90;;;;;;5026230;28;20049;-65
2022/06/21 05:58:05;;;;;;;8.45;2.15;;;14.60;99.90;;;;;;5027764;28;20041;-68
2022/06/21 06:00:40;;;;;;;5.80;1.80;;;14.70;99.90;;;;;;5026992;28;20051;-63
2022/06/21 06:03:19;;;;;;;6.45;2.13;;;14.70;99.90;;;;;;5012164;28;20049;-64
2022/06/21 06:05:47;;;;;;;6.93;1.92;;;14.80;99.90;;;;;;5009201;28;20063;-67
2022/06/21 06:08:31;;;;;;;4.38;1.42;;;14.90;99.90;;;;;;5032112;28;20128;-66
2022/06/21 06:11:01;;;;;;;6.82;1.67;;;15.00;99.90;;;;;;5012762;28;20084;-59
2022/06/21 06:13:34;;;;;;;6.53;1.63;;;14.90;99.90;;;;;;5049012;28;20413;-59
2022/06/21 06:16:09;;;;;;;3.05;1.38;;;15.00;99.90;;;;;;5030129;28;20048;-65
2022/06/21 06:19:05;;;;;;;5.28;1.40;;;14.90;99.90;;;;;;5029918;28;20554;-62
2022/06/21 06:21:42;;;;;;;3.22;1.48;;;14.80;99.90;;;;;;5010116;28;20107;-67
2022/06/21 06:24:20;;;;;;;6.93;1.58;;;14.80;99.90;;;;;;5031024;28;20049;-58
2022/06/21 06:26:49;;;;;;;15.32;2.67;;;14.80;99.90;;;;;;5025911;28;20033;-64
2022/06/21 06:29:36;;;;;;;8.70;1.70;;;14.80;99.90;;;;;;5048325;28;20044;-62
2022/06/21 06:32:10;;;;;;;6.32;1.40;;;15.00;99.90;;;;;;5022448;28;20053;-59
2022/06/21 06:34:42;;;;;;;4.85;1.85;;;15.00;99.90;;;;;;5020851;28;20091;-60
2022/06/21 06:37:19;;;;;;;11.75;1.98;;;14.90;99.90;;;;;;5020406;28;20073;-59
2022/06/21 06:39:45;;;;;;;5.00;1.90;;;14.90;99.90;;;;;;5009593;28;20053;-68
2022/06/21 06:42:17;;;;;;;5.30;1.50;;;14.90;99.90;;;;;;5029073;28;20047;-65
2022/06/21 06:45:11;;;;;;;5.32;1.90;;;15.00;99.90;;;;;;5043389;28;20496;-61
2022/06/21 06:47:40;;;;;;;4.60;1.48;;;15.10;99.90;;;;;;5029719;28;20049;-67
2022/06/21 06:50:24;;;;;;;3.75;1.70;;;15.10;99.90;;;;;;5018793;28;20870;-62
2022/06/21 06:53:12;;;;;;;9.77;3.63;;;15.20;99.90;;;;;;4996405;28;20054;-62
2022/06/21 06:55:58;;;;;;;7.45;2.95;;;15.20;99.90;;;;;;5022936;28;20056;-64
2022/06/21 06:58:42;;;;;;;10.85;3.55;;;15.30;99.90;;;;;;5017252;28;20162;-59
2022/06/21 07:01:23;;;;;;;8.38;3.05;;;15.50;99.90;;;;;;5022421;28;20045;-59
2022/06/21 07:03:53;;;;;;;8.98;3.08;;;15.60;99.90;;;;;;5014664;28;20546;-64
2022/06/21 07:06:57;;;;;;;9.63;2.47;;;15.60;99.90;;;;;;5011077;28;20041;-64
2022/06/21 07:09:40;;;;;;;6.85;2.15;;;15.70;99.90;;;;;;5013362;28;20056;-70
2022/06/21 07:12:19;;;;;;;6.35;1.80;;;15.90;99.90;;;;;;5030909;28;20049;-63
2022/06/21 07:14:47;;;;;;;7.90;1.95;;;16.10;99.90;;;;;;5028871;28;20045;-59
2022/06/21 07:17:31;;;;;;;12.98;2.30;;;16.20;99.90;;;;;;5012309;28;20053;-62
2022/06/21 07:19:57;;;;;;;10.65;1.92;;;16.30;99.90;;;;;;5021103;28;20041;-59
2022/06/21 07:22:34;;;;;;;6.22;1.98;;;16.20;99.90;;;;;;5007471;28;20083;-68
2022/06/21 07:25:30;;;;;;;10.20;1.75;;;16.20;99.90;;;;;;5001740;28;20061;-60
2022/06/21 07:28:01;;;;;;;7.85;2.42;;;16.30;99.90;;;;;;5025850;28;20120;-63
2022/06/21 07:30:38;;;;;;;6.88;1.67;;;16.30;99.90;;;;;;5010838;28;20059;-62
2022/06/21 07:33:09;;;;;;;6.32;1.48;;;16.30;99.90;;;;;;5023673;28;20050;-71
2022/06/21 07:35:49;;;;;;;6.28;1.52;;;16.20;99.90;;;;;;5025420;28;20103;-67
2022/06/21 07:38:18;;;;;;;7.15;1.90;;;16.30;99.90;;;;;;5027099;28;20049;-68
2022/06/21 07:40:50;;;;;;;11.43;1.88;;;16.70;99.90;;;;;;5010928;28;20131;-69
2022/06/21 07:43:35;;;;;;;4.78;1.45;;;17.30;99.90;;;;;;5018527;28;20044;-66
2022/06/21 07:46:03;;;;;;;4.45;1.65;;;17.60;98.50;;;;;;5011899;28;20076;-69
2022/06/21 07:48:38;;;;;;;4.65;1.75;;;17.60;96.50;;;;;;5016770;28;20060;-61
2022/06/21 07:51:15;;;;;;;4.82;1.52;;;17.70;96.90;;;;;;5012608;28;20070;-63
2022/06/21 07:53:58;;;;;;;5.03;1.85;;;17.70;96.60;;;;;;4994658;28;20117;-63
2022/06/21 07:56:33;;;;;;;6.22;2.00;;;18.10;98.00;;;;;;5017765;28;20049;-65
2022/06/21 07:59:04;;;;;;;3.50;1.33;;;18.30;90.80;;;;;;5005328;28;20049;-61
2022/06/21 08:07:23;;;;;;;7.30;2.28;;;19.20;85.20;;;;;;5039320;28;20475;-59
2022/06/21 08:10:01;;;;;;;6.88;1.48;;;19.50;76.50;;;;;;5025858;28;20067;-64
2022/06/21 08:12:27;;;;;;;4.63;1.50;;;19.30;79.40;;;;;;5024528;28;20388;-69
2022/06/21 08:14:53;;;;;;;7.00;1.38;;;19.00;74.40;;;;;;5010432;28;20156;-62
2022/06/21 08:17:19;;;;;;;2.85;1.15;;;18.90;84.40;;;;;;5021854;28;20503;-67
2022/06/21 08:19:50;;;;;;;3.55;1.48;;;19.20;75.00;;;;;;5027789;28;20045;-65
2022/06/21 08:22:21;;;;;;;7.07;1.70;;;19.50;64.60;;;;;;5019995;28;20443;-64
2022/06/21 08:25:13;;;;;;;4.93;1.40;;;19.70;70.20;;;;;;5018002;28;20130;-62
2022/06/21 08:27:51;;;;;;;5.65;1.15;;;20.30;64.90;;;;;;5002666;28;20174;-67
2022/06/21 08:30:22;;;;;;;9.05;1.40;;;20.70;51.00;;;;;;5026113;28;20106;-64
2022/06/21 08:33:08;;;;;;;5.60;1.77;;;20.40;46.10;;;;;;5024777;28;20561;-67
2022/06/21 08:35:39;;;;;;;4.70;1.40;;;19.80;63.20;;;;;;5054428;28;20049;-59
2022/06/21 08:38:04;;;;;;;10.68;1.55;;;18.90;65.10;;;;;;5026880;28;20045;-59
2022/06/21 08:40:52;;;;;;;1.88;1.17;;;18.70;88.20;;;;;;5020692;28;20054;-67
2022/06/21 08:43:44;;;;;;;4.93;1.85;;;19.00;84.90;;;;;;5013595;28;20049;-61
2022/06/21 08:46:47;;;;;;;5.75;1.23;;;19.50;71.20;;;;;;4981120;28;20048;-59
2022/06/21 08:49:51;;;;;;;5.90;1.50;;;19.50;53.70;;;;;;4997910;28;20048;-60
2022/06/21 08:52:35;;;;;;;5.85;1.25;;;19.60;74.40;;;;;;5001438;28;20131;-61
2022/06/21 08:55:27;;;;;;;5.63;1.30;;;20.10;52.00;;;;;;5012731;28;20483;-59
2022/06/21 08:58:13;;;;;;;3.10;1.17;;;20.70;58.70;;;;;;5022757;28;20037;-60
2022/06/21 09:00:52;;;;;;;4.40;1.23;;;21.10;58.80;;;;;;5019361;28;20045;-66
2022/06/21 09:03:49;;;;;;;2.65;1.30;;;20.90;41.40;;;;;;5012910;28;20050;-68
2022/06/21 09:06:42;;;;;;;4.85;1.20;;;20.80;52.20;;;;;;5021112;28;20594;-68
2022/06/21 09:09:25;;;;;;;3.17;1.02;;;20.40;47.80;;;;;;5010439;28;20075;-65
2022/06/21 09:12:00;;;;;;;5.75;1.42;;;20.20;57.60;;;;;;5024145;28;20041;-68
2022/06/21 09:14:54;;;;;;;6.90;1.25;;;19.80;39.90;;;;;;5026376;28;20048;-63
2022/06/21 09:17:26;;;;;;;5.20;1.25;;;19.50;66.20;;;;;;5026523;28;20511;-64
2022/06/21 09:20:20;;;;;;;2.72;1.10;;;19.20;62.20;;;;;;5021685;28;20041;-64
2022/06/21 09:22:55;;;;;;;4.00;0.95;;;19.00;75.40;;;;;;5023760;28;20049;-60
2022/06/21 09:25:44;;;;;;;4.38;1.00;;;18.90;78.40;;;;;;5007148;28;20544;-60
2022/06/21 09:28:25;;;;;;;;;;;19.00;78.00;;;;;;5021731;28;20212;-60
2022/06/21 09:31:00;;;;;;;3.03;1.30;;;19.50;90.60;;;;;;5025486;28;20023;-68
2022/06/21 09:33:43;;;;;;;4.90;1.33;;;19.90;72.00;;;;;;5007900;28;20394;-66
2022/06/21 09:36:27;;;;;;;6.90;1.77;;;19.80;60.00;;;;;;5027580;28;20056;-60
2022/06/21 09:38:56;;;;;;;8.38;1.88;;;19.70;62.60;;;;;;5025323;28;20095;-68
2022/06/21 09:41:31;;;;;;;4.88;1.50;;;19.60;61.10;;;;;;5009971;28;20045;-65
2022/06/21 09:44:19;;;;;;;10.48;1.30;;;19.40;78.40;;;;;;5029852;28;20060;-59
2022/06/21 09:46:46;;;;;;;3.80;1.48;;;19.60;67.10;;;;;;5024148;28;20094;-60
2022/06/21 09:49:39;;;;;;;3.60;1.52;;;19.50;83.10;;;;;;5048783;28;20130;-60
2022/06/21 09:52:30;;;;;;;6.75;1.77;;;19.40;66.00;;;;;;5015551;28;20045;-61
2022/06/21 09:55:54;;;;;;;3.55;1.30;;;19.50;92.20;;;;;;4994938;28;20661;-65
2022/06/21 09:58:38;;;;;;;4.50;1.60;;;19.60;80.50;;;;;;4984172;28;20047;-69
2022/06/21 10:01:40;;;;;;;3.00;1.50;;;19.90;81.20;;;;;;4978816;28;20136;-61
2022/06/21 10:04:18;;;;;;;4.65;1.60;;;19.50;60.10;;;;;;5018422;28;20144;-70
2022/06/21 10:07:13;;;;;;;4.25;1.40;;;18.90;69.80;;;;;;5046784;28;20123;-71
2022/06/21 10:09:54;;;;;;;8.80;1.45;;;18.40;88.90;;;;;;5023029;28;20049;-70
2022/06/21 10:12:48;;;;;;;8.05;1.70;;;18.00;88.90;;;;;;5023883;28;20092;-71
2022/06/21 10:15:17;;;;;;;5.25;1.60;;;17.90;91.80;;;;;;5030814;28;20080;-66
2022/06/21 10:17:57;;;;;;;7.85;1.55;;;17.70;83.80;;;;;;5046875;28;20056;-63
2022/06/21 10:20:48;;;;;;;2.53;1.20;;;17.80;94.70;;;;;;5028447;28;20470;-71
2022/06/21 10:24:12;;;;;;;8.93;1.42;;;18.00;86.80;;;;;;5017374;28;20053;-67
2022/06/21 10:26:49;;;;;;;5.03;1.80;;;18.20;92.60;;;;;;4963915;28;20105;-67
2022/06/21 10:29:33;;;;;;;6.25;1.58;;;18.50;92.70;;;;;;5006159;28;20079;-67
2022/06/21 10:32:24;;;;;;;5.93;1.85;;;18.20;79.40;;;;;;5011735;28;20045;-59
2022/06/21 10:35:19;;;;;;;3.40;1.52;;;18.00;87.50;;;;;;5012758;28;20057;-62
2022/06/21 10:38:09;;;;;;;6.03;1.75;;;17.90;92.00;;;;;;4991731;28;20092;-63
2022/06/21 10:40:44;;;;;;;2.75;1.33;;;17.80;94.50;;;;;;5027208;28;20095;-71
2022/06/21 10:43:11;;;;;;;4.70;1.77;;;17.80;90.10;;;;;;5028150;28;20103;-61
2022/06/21 10:45:58;;;;;;;4.78;1.70;;;17.70;91.10;;;;;;5029046;28;20086;-66
2022/06/21 10:49:01;;;;;;;6.35;1.65;;;17.80;92.10;;;;;;5046027;28;20206;-66
2022/06/21 10:52:20;;;;;;;6.00;1.67;;;17.90;92.90;;;;;;5025464;28;20414;-66
2022/06/21 10:54:54;;;;;;;7.55;2.20;;;18.10;90.80;;;;;;4968757;28;20050;-61
2022/06/21 10:57:59;;;;;;;4.00;1.63;;;18.30;92.00;;;;;;5019423;28;20049;-67
2022/06/21 11:04:09;;;;;;;2.72;1.60;;;19.10;93.40;;;;;;5016607;28;20049;-60
2022/06/21 11:06:57;;;;;;;1.65;1.40;;;19.50;84.60;;;;;;5021214;28;20061;-70
2022/06/21 11:09:35;;;;;;;6.60;1.80;;;19.40;73.40;;;;;;5020246;28;20045;-65
2022/06/21 11:15:17;;;;;;;5.70;1.63;;;19.20;73.40;;;;;;5021580;28;20049;-63
2022/06/21 11:18:04;;;;;;;5.05;1.70;;;19.10;70.40;;;;;;5027710;28;20052;-61
2022/06/21 11:20:57;;;;;;;3.97;1.35;;;19.30;98.30;;;;;;5034269;28;20132;-66
2022/06/21 11:23:31;;;;;;;4.90;1.52;;;19.60;82.10;;;;;;5029034;28;20057;-69
2022/06/21 11:26:01;;;;;;;4.63;1.95;;;19.90;75.70;;;;;;5009912;28;20045;-61
2022/06/21 11:28:46;;;;;;;4.50;1.60;;;19.80;66.10;;;;;;5024069;28;20041;-71
2022/06/21 11:31:36;;;;;;;5.75;1.65;;;19.60;73.70;;;;;;5021586;28;20045;-71
2022/06/21 11:34:11;;;;;;;6.32;1.40;;;19.40;78.90;;;;;;5006750;28;20135;-65
2022/06/21 11:36:56;;;;;;;4.45;1.60;;;19.00;62.30;;;;;;5014307;28;20124;-62
2022/06/21 11:39:48;;;;;;;5.65;1.63;;;18.80;84.70;;;;;;5016145;28;20050;-61
2022/06/21 11:42:35;;;;;;;6.63;1.85;;;18.90;76.70;;;;;;5023763;28;20049;-71
2022/06/21 11:45:18;;;;;;;5.70;1.70;;;19.00;72.40;;;;;;5023785;28;20382;-59
2022/06/21 11:48:02;;;;;;;4.45;1.60;;;19.00;86.70;;;;;;5023226;28;20053;-63
2022/06/21 11:50:40;;;;;;;3.05;1.40;;;19.20;93.80;;;;;;5036499;28;20052;-70
2022/06/21 11:53:16;;;;;;;8.57;2.10;;;19.20;78.00;;;;;;5024835;28;20411;-62
2022/06/21 11:55:55;;;;;;;5.68;1.80;;;19.40;89.60;;;;;;5031705;28;20083;-67
2022/06/21 11:58:34;;;;;;;7.18;2.50;;;19.20;72.00;;;;;;4997720;28;20503;-63
2022/06/21 12:01:23;;;;;;;3.08;2.03;;;18.80;73.70;;;;;;5016774;28;20063;-60
2022/06/21 12:04:26;;;;;;;6.47;2.55;;;18.70;76.80;;;;;;5018826;28;20051;-67
2022/06/21 12:07:07;;;;;;;4.78;1.92;;;18.60;90.70;;;;;;5037345;28;20052;-62
2022/06/21 12:09:42;;;;;;;4.68;1.85;;;18.80;92.40;;;;;;5043911;28;20044;-60
2022/06/21 12:12:23;;;;;;;5.72;1.70;;;18.90;77.60;;;;;;5043973;28;20091;-68
2022/06/21 12:15:25;;;;;;;4.43;1.85;;;19.00;92.40;;;;;;5034713;28;20079;-71
2022/06/21 12:17:55;;;;;;;4.45;2.15;;;19.00;83.50;;;;;;5011064;28;20049;-69
2022/06/21 12:20:30;;;;;;;7.07;2.08;;;18.80;88.10;;;;;;5040662;28;20368;-62
2022/06/21 12:23:23;;;;;;;2.38;1.60;;;18.70;86.30;;;;;;5039388;28;20045;-60
2022/06/21 12:25:50;;;;;;;6.38;2.10;;;18.60;86.50;;;;;;5003221;28;20071;-69
2022/06/21 12:28:20;;;;;;;6.00;2.10;;;18.60;77.00;;;;;;5029560;28;20056;-65
2022/06/21 12:30:46;;;;;;;3.90;1.80;;;18.60;72.40;;;;;;5028522;28;20399;-66
2022/06/21 12:33:15;;;;;;;5.07;1.80;;;18.70;87.00;;;;;;5026411;28;20110;-60
2022/06/21 12:36:23;;;;;;;5.10;1.90;;;18.70;74.00;;;;;;5028981;28;20088;-60
2022/06/21 12:39:05;;;;;;;6.85;2.08;;;18.60;74.70;;;;;;5026450;28;20487;-59
2022/06/21 12:41:56;;;;;;;7.90;2.10;;;18.50;73.00;;;;;;5029154;28;20346;-64
2022/06/21 12:45:11;;;;;;;6.00;2.10;;;18.50;79.90;;;;;;5010800;28;20044;-59
2022/06/21 12:47:57;;;;;;;5.28;1.70;;;18.70;90.90;;;;;;5020289;28;20175;-70
2022/06/21 12:50:32;;;;;;;5.90;2.10;;;19.00;91.00;;;;;;4968718;28;20052;-61
2022/06/21 12:53:13;;;;;;;6.22;2.30;;;19.10;91.30;;;;;;5004922;28;20052;-58
2022/06/21 12:55:49;;;;;;;6.13;2.42;;;19.00;76.90;;;;;;5032599;28;20131;-69
2022/06/21 12:58:32;;;;;;;8.70;2.55;;;18.90;88.70;;;;;;5025053;28;20040;-69
2022/06/21 13:01:02;;;;;;;5.47;2.38;;;18.90;91.70;;;;;;5027296;28;20052;-60
2022/06/21 13:04:00;;;;;;;9.45;2.08;;;18.90;76.60;;;;;;4998573;28;20455;-65
2022/06/21 13:06:26;;;;;;;5.53;2.35;;;19.00;77.60;;;;;;5016217;28;20061;-68
2022/06/21 13:09:29;;;;;;;5.38;1.77;;;19.10;85.50;;;;;;5027269;28;20544;-66
2022/06/21 13:12:07;;;;;;;5.85;2.63;;;19.20;91.00;;;;;;4997470;28;20055;-64
2022/06/21 13:15:02;;;;;;;6.78;2.00;;;19.40;78.90;;;;;;5021469;28;20059;-58
2022/06/21 13:17:47;;;;;;;10.10;2.35;;;19.40;75.20;;;;;;5022093;28;20322;-60
2022/06/21 13:20:26;;;;;;;6.00;2.05;;;19.20;66.00;;;;;;5023432;28;20128;-65
2022/06/21 13:23:12;;;;;;;4.93;2.15;;;19.10;70.60;;;;;;5029742;28;20045;-58
2022/06/21 13:26:02;;;;;;;2.92;1.88;;;19.00;62.60;;;;;;5010176;28;20056;-58
2022/06/21 13:29:01;;;;;;;5.18;1.90;;;18.90;73.60;;;;;;5012467;28;20104;-61
2022/06/21 13:31:38;;;;;;;4.85;2.10;;;18.90;77.70;;;;;;5023721;28;20052;-67
2022/06/21 13:34:19;;;;;;;6.65;2.53;;;18.90;76.60;;;;;;5026789;28;20050;-66
2022/06/21 13:36:48;;;;;;;7.35;1.98;;;18.80;70.40;;;;;;5026443;28;20112;-65
2022/06/21 13:39:26;;;;;;;7.07;2.17;;;18.80;77.30;;;;;;5025667;28;20049;-61
2022/06/21 13:45:09;;;;;;;3.17;1.45;;;18.90;71.90;;;;;;5021795;28;20125;-59
2022/06/21 13:47:41;;;;;;;4.00;1.50;;;19.00;77.70;;;;;;5025381;28;20049;-70
2022/06/21 13:50:12;;;;;;;11.20;1.85;;;19.00;78.10;;;;;;5013964;28;20509;-68
2022/06/21 13:52:48;;;;;;;2.17;1.60;;;19.10;77.10;;;;;;5026883;28;20494;-59
2022/06/21 13:55:41;;;;;;;3.58;1.70;;;19.10;78.30;;;;;;5010505;28;20450;-59
2022/06/21 13:58:07;;;;;;;4.70;1.73;;;19.00;75.30;;;;;;5023655;28;20456;-69
2022/06/21 14:00:51;;;;;;;7.40;1.90;;;19.10;81.40;;;;;;5011366;28;20552;-66
2022/06/21 14:03:17;;;;;;;2.83;1.30;;;19.10;71.80;;;;;;5015370;28;20112;-60